Flight Track Log - Related Links

Times and Time Zones

All times are in EDT time to prevent confusion due to time zone crossing. See the N641BB flight status page for this flight to view local times or setup timezone preferences in your user account.

Time Position Orientation Groundspeed Altitude Reporting Facility
EDT Latitude Longitude Course Direction KTS MPH feet Rate Location/Type
Thu 12:05:27 PM 37.5817 -82.6450 293° West 114 131 2,700  Level Indianapolis Center
Thu 12:06:29 PM 37.5942 -82.6819 293° West 115 132 3,300 537 Climbing Indianapolis Center
Thu 12:07:30 PM 37.6069 -82.7181 294° West 114 131 3,800 341 Climbing Indianapolis Center
Thu 12:08:32 PM 37.6172 -82.7575 288° West 115 132 4,000 97 Climbing Indianapolis Center
Thu 12:09:34 PM 37.6286 -82.7997 289° West 120 138 4,000  Level Indianapolis Center
Thu 12:10:36 PM 37.6414 -82.8517 287° West 127 146 4,000 48 Level Indianapolis Center
Thu 12:11:38 PM 37.6517 -82.8978 286° West 132 152 4,100  Climbing Indianapolis Center
Thu 12:12:39 PM 37.6633 -82.9444 288° West 135 155 4,000 -49 Descending Indianapolis Center
Thu 12:13:41 PM 37.6731 -82.9914 285° West 138 159 4,000  Level Indianapolis Center
Thu 12:14:43 PM 37.6836 -83.0353 287° West 135 155 4,000  Level Indianapolis Center
Thu 12:15:45 PM 37.6944 -83.0797 287° West 133 153 4,000  Level Indianapolis Center
Thu 12:16:46 PM 37.7053 -83.1269 286° West 136 157 4,000  Level Indianapolis Center
Thu 12:17:48 PM 37.7172 -83.1800 286° West 136 157 4,000  Level Indianapolis Center
Thu 12:18:50 PM 37.7281 -83.2258 287° West 136 157 4,000  Level Indianapolis Center
Thu 12:19:52 PM 37.7389 -83.2728 286° West 137 158 4,000  Level Indianapolis Center
Thu 12:20:54 PM 37.7494 -83.3194 286° West 138 159 4,000  Level Indianapolis Center
Thu 12:21:55 PM 37.7603 -83.3661 286° West 138 159 4,000  Level Indianapolis Center
Thu 12:22:57 PM 37.7708 -83.4111 287° West 136 157 4,000  Level Indianapolis Center
Thu 12:23:59 PM 37.7831 -83.4639 286° West 135 155 4,000  Level Indianapolis Center
Thu 12:25:01 PM 37.7942 -83.5094 287° West 135 155 4,000  Level Indianapolis Center
Thu 12:26:02 PM 37.8025 -83.5539 283° West 133 153 4,000 49 Level Indianapolis Center
Thu 12:27:04 PM 37.8128 -83.5978 287° West 132 152 4,100  Climbing Indianapolis Center
Thu 12:28:06 PM 37.8247 -83.6442 288° West 134 154 4,000 -48 Descending Indianapolis Center
Thu 12:29:08 PM 37.8347 -83.6906 285° West 136 157 4,000 48 Level Indianapolis Center
Thu 12:30:10 PM 37.8458 -83.7417 285° West 132 152 4,100  Climbing Indianapolis Center
Thu 12:31:12 PM 37.8556 -83.7861 285° West 131 151 4,000 -48 Descending Indianapolis Center
Thu 12:32:14 PM 37.8658 -83.8303 286° West 131 151 4,000  Level Indianapolis Center
Thu 12:33:15 PM 37.8764 -83.8742 287° West 130 150 4,000  Level Indianapolis Center
Thu 12:34:17 PM 37.8858 -83.9197 285° West 132 152 4,000  Level Indianapolis Center
Thu 12:35:19 PM 37.8958 -83.9647 286° West 132 152 4,000  Level Indianapolis Center
Thu 12:36:21 PM 37.9075 -84.0183 285° West 134 154 4,000  Level Indianapolis Center
Thu 12:37:23 PM 37.9181 -84.0656 286° West 136 157 4,000  Level Indianapolis Center
Thu 12:38:25 PM 37.9278 -84.1114 285° West 136 157 4,000  Level Indianapolis Center
Thu 12:39:27 PM 37.9383 -84.1567 286° West 135 155 4,000  Level Indianapolis Center
Thu 12:40:28 PM 37.9481 -84.2011 286° West 133 153 4,000  Level Indianapolis Center
Thu 12:41:30 PM 37.9581 -84.2461 286° West 132 152 4,000  Level Indianapolis Center
Thu 12:42:32 PM 37.9692 -84.2994 285° West 133 153 4,000  Level Indianapolis Center
Thu 12:43:34 PM 37.9789 -84.3436 286° West 132 152 4,000  Level Indianapolis Center
Thu 12:44:36 PM 37.9881 -84.3881 285° West 131 151 4,000 -290 Level Indianapolis Center
Thu 12:45:38 PM 38.0014 -84.4314 291° West 132 152 3,400 -484 Descending Indianapolis Center
Thu 12:46:40 PM 38.0197 -84.4714 300° West 132 152 3,000 -435 Descending Indianapolis Center
Thu 12:47:42 PM 38.0364 -84.5033 304° West 120 138 2,500 -242 Descending Indianapolis Center
Thu 12:48:44 PM 38.0539 -84.5344 306° West 116 133 2,500  Level Indianapolis Center
Thu 12:50:00 PM 38.0414 -84.5884 302° West  Level Estimated
Thu 12:57:00 PM 38.0333 -84.6000 302° West  Level FlightAware Approximate
Thu 12:58:00 PM 38.0368 -84.6086 302° West  Level Estimated
Thu 12:59:00 PM 38.0368 -84.6086 302° West  Level Estimated

Login

Don't have an account? Register now (free) for customized features, flight alerts, and more!